Time;durP1;ratioP1;P1;durP2;ratioP2;P2;SDS_P1;SDS_P2;PMS_P1;PMS_P2;Temp;Humidity;BMP_temperature;BMP_pressure;BME280_temperature;BME280_humidity;BME280_pressure;Samples;Min_cycle;Max_cycle;Signal;HPM_P1;HPM_P2
2023/09/21 00:01:39;;;;;;;0.10;0.10;;;;;;;19.82;70.97;101299.00;5021795;28;20498;-92
2023/09/21 00:04:06;;;;;;;0.20;0.20;;;;;;;19.81;71.80;101296.50;5021634;28;20055;-93
2023/09/21 00:06:31;;;;;;;0.20;0.20;;;;;;;19.87;71.72;101296.06;5007569;28;20069;-93
2023/09/21 00:08:57;;;;;;;0.10;0.10;;;;;;;19.89;71.64;101300.22;5024956;28;20087;-93
2023/09/21 00:11:22;;;;;;;0.20;0.20;;;;;;;19.89;71.32;101305.47;5010800;28;20028;-92
2023/09/21 00:13:49;;;;;;;0.20;0.20;;;;;;;19.81;70.95;101294.72;5038671;28;20029;-92
2023/09/21 00:16:17;;;;;;;0.20;0.20;;;;;;;19.83;70.76;101297.22;5060295;28;20037;-92
2023/09/21 00:18:43;;;;;;;0.20;0.20;;;;;;;19.81;70.11;101296.50;5026093;28;20495;-92
2023/09/21 00:21:08;;;;;;;0.20;0.20;;;;;;;19.79;70.29;101293.19;5023201;28;20023;-93
2023/09/21 00:23:34;;;;;;;0.10;0.10;;;;;;;19.77;70.71;101288.88;5021820;28;20025;-93
2023/09/21 00:26:00;;;;;;;0.13;0.13;;;;;;;19.76;70.94;101302.97;5020224;28;20048;-93
2023/09/21 00:28:27;;;;;;;0.20;0.20;;;;;;;19.76;70.51;101287.22;5003199;28;20029;-93
2023/09/21 00:30:57;;;;;;;0.20;0.20;;;;;;;19.66;71.46;101293.25;5020407;28;20485;-93
2023/09/21 00:33:27;;;;;;;0.20;0.20;;;;;;;19.61;71.80;101288.38;5020560;28;20029;-93
2023/09/21 00:35:52;;;;;;;0.20;0.20;;;;;;;19.66;71.60;101290.63;5004830;28;20041;-93
2023/09/21 00:38:19;;;;;;;0.20;0.20;;;;;;;19.56;71.65;101285.25;5018221;28;20128;-93
2023/09/21 00:40:45;;;;;;;0.10;0.10;;;;;;;19.59;71.13;101286.84;5019060;28;20040;-93
2023/09/21 00:43:20;;;;;;;0.10;0.10;;;;;;;19.62;70.72;101289.22;5018519;28;20092;-93
2023/09/21 00:45:48;;;;;;;0.20;0.20;;;;;;;19.56;70.38;101280.00;5035119;28;20102;-92
2023/09/21 00:48:13;;;;;;;0.20;0.20;;;;;;;19.41;70.92;101257.53;5001765;28;20039;-93
2023/09/21 00:50:42;;;;;;;0.10;0.10;;;;;;;19.58;70.98;101282.53;5001400;28;20025;-91
2023/09/21 00:53:12;;;;;;;0.10;0.10;;;;;;;19.55;71.38;101286.19;5018203;28;20079;-93
2023/09/21 00:55:40;;;;;;;0.20;0.20;;;;;;;19.61;70.49;101298.88;5019839;28;20414;-94
2023/09/21 00:58:07;;;;;;;0.20;0.20;;;;;;;19.56;70.25;101295.75;5001990;28;20071;-92
2023/09/21 01:00:32;;;;;;;0.20;0.20;;;;;;;19.51;70.45;101297.88;5001862;28;20675;-93
2023/09/21 01:03:07;;;;;;;0.20;0.20;;;;;;;19.58;70.61;101299.13;5051371;28;20052;-94
2023/09/21 01:05:36;;;;;;;0.10;0.10;;;;;;;19.61;70.06;101293.63;5021423;28;20040;-93
2023/09/21 01:08:04;;;;;;;0.20;0.20;;;;;;;19.59;70.30;101295.53;5018778;28;20380;-92
2023/09/21 01:10:30;;;;;;;0.20;0.20;;;;;;;19.54;70.60;101287.13;5002705;28;20489;-93
2023/09/21 01:12:55;;;;;;;0.20;0.20;;;;;;;19.61;70.14;101291.00;5018153;28;20057;-93
2023/09/21 01:15:21;;;;;;;0.20;0.20;;;;;;;19.48;70.10;101261.38;5021427;28;20044;-93
2023/09/21 01:17:46;;;;;;;0.20;0.20;;;;;;;19.59;69.98;101290.28;5020524;28;20032;-93
2023/09/21 01:20:29;;;;;;;0.20;0.20;;;;;;;19.60;69.98;101291.13;5019730;28;20447;-92
2023/09/21 01:23:19;;;;;;;0.20;0.20;;;;;;;19.56;70.31;101289.66;5026290;28;20025;-93
2023/09/21 01:25:50;;;;;;;0.20;0.20;;;;;;;19.49;70.66;101294.53;5003299;28;20033;-92
2023/09/21 01:28:20;;;;;;;0.20;0.20;;;;;;;19.45;71.02;101295.69;5001371;28;20037;-94
2023/09/21 01:30:46;;;;;;;0.20;0.20;;;;;;;19.49;71.03;101294.53;5017755;28;20140;-93
2023/09/21 01:33:12;;;;;;;0.20;0.20;;;;;;;19.39;70.80;101281.28;5017489;28;20117;-92
2023/09/21 01:35:38;;;;;;;0.20;0.20;;;;;;;19.43;71.28;101280.06;5017581;28;20457;-93
2023/09/21 01:38:06;;;;;;;0.10;0.10;;;;;;;19.41;70.76;101278.53;5018383;28;20021;-92
2023/09/21 01:40:34;;;;;;;0.10;0.10;;;;;;;19.44;71.12;101281.75;5019504;28;20025;-93
2023/09/21 01:43:07;;;;;;;0.20;0.20;;;;;;;19.42;71.24;101281.03;5034974;28;20159;-93
2023/09/21 01:45:34;;;;;;;0.20;0.20;;;;;;;19.35;71.51;101278.97;5019719;28;20029;-93
2023/09/21 01:48:01;;;;;;;0.20;0.20;;;;;;;19.26;71.93;101277.03;5017724;28;20116;-92
2023/09/21 01:50:29;;;;;;;0.20;0.20;;;;;;;19.20;72.58;101289.69;5038765;28;20021;-92
2023/09/21 01:52:56;;;;;;;0.20;0.20;;;;;;;19.13;72.73;101288.47;5005439;28;20057;-93
2023/09/21 01:55:21;;;;;;;0.10;0.10;;;;;;;19.23;72.59;101287.78;5039720;28;20024;-92
2023/09/21 01:57:47;;;;;;;0.20;0.20;;;;;;;19.23;72.44;101278.13;5022444;28;20033;-92
2023/09/21 02:00:26;;;;;;;0.10;0.10;;;;;;;19.16;72.81;101275.09;5039628;28;20528;-93
2023/09/21 02:02:52;;;;;;;0.20;0.20;;;;;;;19.24;72.43;101278.94;5009224;28;20086;-92
2023/09/21 02:05:18;;;;;;;0.10;0.10;;;;;;;19.23;72.36;101272.88;5037624;28;20033;-93
2023/09/21 02:07:44;;;;;;;0.10;0.10;;;;;;;19.09;73.33;101271.28;5004013;28;20028;-93
2023/09/21 02:10:11;;;;;;;0.10;0.10;;;;;;;19.07;73.53;101273.16;5004232;28;20029;-93
2023/09/21 02:12:38;;;;;;;0.20;0.20;;;;;;;19.10;73.41;101272.97;5038059;28;20482;-92
2023/09/21 02:15:10;;;;;;;0.10;0.10;;;;;;;19.24;72.91;101260.59;5005909;28;20024;-92
2023/09/21 02:17:38;;;;;;;0.20;0.20;;;;;;;19.19;73.18;101267.03;5038896;28;20039;-93
2023/09/21 02:20:15;;;;;;;0.20;0.20;;;;;;;19.14;73.39;101263.91;5042444;28;20413;-92
2023/09/21 02:22:44;;;;;;;0.10;0.10;;;;;;;19.07;72.80;101238.25;5008679;28;20091;-92
2023/09/21 02:25:10;;;;;;;0.20;0.20;;;;;;;19.09;73.01;101249.47;5023017;28;20063;-92
2023/09/21 02:27:37;;;;;;;0.20;0.20;;;;;;;19.03;73.41;101250.75;5039157;28;20033;-92
2023/09/21 02:30:05;;;;;;;0.17;0.17;;;;;;;19.02;72.93;101243.84;5021715;28;20040;-92
2023/09/21 02:32:31;;;;;;;0.20;0.20;;;;;;;19.01;73.55;101254.47;5021226;28;20572;-93
2023/09/21 02:34:56;;;;;;;0.20;0.20;;;;;;;19.01;73.17;101236.94;5024405;28;20052;-93
2023/09/21 02:37:22;;;;;;;0.20;0.20;;;;;;;19.11;72.93;101253.66;5021023;28;20021;-92
2023/09/21 02:39:49;;;;;;;0.20;0.20;;;;;;;19.11;73.06;101253.66;5021742;28;20540;-93
2023/09/21 02:42:14;;;;;;;0.20;0.20;;;;;;;19.03;72.94;101247.31;5007333;28;20033;-92
2023/09/21 02:44:40;;;;;;;0.20;0.20;;;;;;;19.10;72.60;101256.41;5039740;28;20036;-93
2023/09/21 02:47:07;;;;;;;0.13;0.13;;;;;;;19.07;73.40;101251.34;5022560;28;20021;-92
2023/09/21 02:49:32;;;;;;;0.10;0.10;;;;;;;19.12;72.76;101260.56;5038116;28;20181;-92
2023/09/21 02:51:58;;;;;;;0.10;0.10;;;;;;;19.11;72.88;101261.53;5021372;28;20487;-92
2023/09/21 02:54:23;;;;;;;0.20;0.20;;;;;;;19.16;72.60;101277.72;5036582;28;20040;-93
2023/09/21 02:56:50;;;;;;;0.20;0.20;;;;;;;19.06;73.55;101276.75;5019851;28;20025;-92
2023/09/21 02:59:15;;;;;;;0.10;0.10;;;;;;;19.07;73.40;101281.03;5023602;28;20053;-91
2023/09/21 03:01:41;;;;;;;0.20;0.20;;;;;;;19.18;72.67;101291.59;5034845;28;20025;-90
2023/09/21 03:04:07;;;;;;;0.20;0.20;;;;;;;19.18;72.53;101285.50;5018425;28;20515;-90
2023/09/21 03:06:33;;;;;;;0.20;0.20;;;;;;;19.18;72.44;101286.34;5018422;28;20153;-90
2023/09/21 03:08:58;;;;;;;0.20;0.20;;;;;;;19.26;71.74;101270.00;5018163;28;20034;-89
2023/09/21 03:11:24;;;;;;;0.10;0.10;;;;;;;19.29;71.94;101276.84;5002262;28;20503;-89
2023/09/21 03:13:50;;;;;;;0.20;0.20;;;;;;;19.08;72.36;101280.13;5018508;28;20124;-89
2023/09/21 03:16:17;;;;;;;0.10;0.10;;;;;;;19.11;72.52;101293.00;5018205;28;20522;-90
2023/09/21 03:18:46;;;;;;;0.10;0.10;;;;;;;19.19;72.27;101297.66;5018164;28;20036;-89
2023/09/21 03:21:15;;;;;;;0.13;0.13;;;;;;;19.02;72.43;101280.56;5002767;28;20036;-89
2023/09/21 03:23:41;;;;;;;0.20;0.20;;;;;;;19.13;72.47;101298.13;5019173;28;20029;-88
2023/09/21 03:26:18;;;;;;;0.20;0.20;;;;;;;18.95;72.94;101266.22;5018348;28;20060;-90
2023/09/21 03:28:45;;;;;;;0.20;0.20;;;;;;;19.14;72.55;101291.91;5020439;28;20078;-90
2023/09/21 03:31:12;;;;;;;0.20;0.20;;;;;;;19.16;72.76;101292.63;5001730;28;20431;-89
2023/09/21 03:33:38;;;;;;;0.20;0.20;;;;;;;19.18;72.43;101285.50;5018345;28;20025;-90
2023/09/21 03:36:04;;;;;;;0.20;0.20;;;;;;;19.24;72.09;101286.81;5018095;28;20051;-90
2023/09/21 03:38:29;;;;;;;0.20;0.20;;;;;;;19.29;71.97;101282.09;5034216;28;20021;-90
2023/09/21 03:40:56;;;;;;;0.20;0.20;;;;;;;19.36;71.95;101297.22;5017490;28;20508;-88
2023/09/21 03:43:23;;;;;;;0.20;0.20;;;;;;;19.28;71.61;101294.38;5017782;28;20025;-90
2023/09/21 03:45:49;;;;;;;0.10;0.10;;;;;;;19.15;71.88;101278.69;5018176;28;20082;-88
2023/09/21 03:48:15;;;;;;;0.20;0.20;;;;;;;19.24;70.85;101277.16;5017493;28;20028;-88
2023/09/21 03:50:42;;;;;;;0.10;0.10;;;;;;;19.32;71.05;101281.84;5017806;28;20064;-88
2023/09/21 03:53:10;;;;;;;0.13;0.13;;;;;;;19.33;70.61;101275.63;5017545;28;20404;-89
2023/09/21 03:55:36;;;;;;;0.20;0.20;;;;;;;19.30;71.07;101275.88;5018628;28;20054;-89
2023/09/21 03:58:02;;;;;;;0.10;0.10;;;;;;;19.32;70.59;101266.94;5017501;28;20074;-89
2023/09/21 04:03:00;;;;;;;0.10;0.10;;;;;;;19.37;70.15;101274.44;5018617;28;20479;-89
2023/09/21 04:05:31;;;;;;;0.20;0.20;;;;;;;19.31;70.26;101274.94;5017144;28;20521;-88
2023/09/21 04:07:56;;;;;;;0.20;0.20;;;;;;;19.22;70.87;101265.13;5017384;28;20032;-88
2023/09/21 04:10:22;;;;;;;0.20;0.20;;;;;;;19.34;71.04;101279.94;5000659;28;20033;-88
2023/09/21 04:12:47;;;;;;;0.20;0.20;;;;;;;19.40;70.65;101277.69;5032545;28;20090;-88
2023/09/21 04:15:13;;;;;;;0.20;0.20;;;;;;;19.41;70.67;101281.16;5016613;28;20061;-89
2023/09/21 04:17:41;;;;;;;0.20;0.20;;;;;;;19.38;70.51;101261.25;5000631;28;20120;-88
2023/09/21 04:20:11;;;;;;;0.20;0.20;;;;;;;19.48;70.87;101283.19;5016346;28;20033;-91
2023/09/21 04:22:40;;;;;;;0.20;0.20;;;;;;;19.58;71.25;101286.00;4998414;28;20079;-89
2023/09/21 04:25:07;;;;;;;0.20;0.20;;;;;;;19.80;70.09;101279.09;5016057;28;20025;-91
2023/09/21 04:27:34;;;;;;;0.20;0.20;;;;;;;19.84;69.94;101281.34;5007502;28;20032;-88
2023/09/21 04:30:01;;;;;;;0.20;0.20;;;;;;;19.85;69.77;101290.06;5034437;28;20410;-93
2023/09/21 04:32:27;;;;;;;0.20;0.20;;;;;;;19.73;70.12;101270.84;5017085;28;20033;-91
2023/09/21 04:34:52;;;;;;;0.20;0.20;;;;;;;19.61;70.21;101264.75;5032534;28;20528;-86
2023/09/21 04:37:18;;;;;;;0.20;0.20;;;;;;;19.63;70.38;101281.22;5019895;28;20083;-90
2023/09/21 04:39:43;;;;;;;0.20;0.20;;;;;;;19.67;70.69;101287.91;5001374;28;20029;-88
2023/09/21 04:42:13;;;;;;;0.20;0.20;;;;;;;19.63;71.01;101286.47;5033632;28;20075;-91
2023/09/21 04:44:39;;;;;;;0.20;0.20;;;;;;;19.68;71.19;101275.63;5017282;28;20033;-92
2023/09/21 04:47:05;;;;;;;0.20;0.20;;;;;;;19.56;70.55;101284.41;5037848;28;20090;-92
2023/09/21 04:49:30;;;;;;;0.10;0.10;;;;;;;19.42;70.49;101249.53;5032738;28;20112;-90
2023/09/21 04:51:56;;;;;;;0.20;0.20;;;;;;;19.66;70.77;101286.22;5026627;28;20045;-93
2023/09/21 04:54:22;;;;;;;0.20;0.20;;;;;;;19.53;69.53;101267.09;5017135;28;20529;-91
2023/09/21 04:56:51;;;;;;;0.20;0.20;;;;;;;19.52;70.73;101283.78;5025362;28;20499;-90
2023/09/21 04:59:20;;;;;;;0.20;0.20;;;;;;;19.55;70.59;101286.19;4992304;28;20049;-84
2023/09/21 05:01:47;;;;;;;0.20;0.20;;;;;;;19.56;70.77;101273.91;5037039;28;20151;-87
2023/09/21 05:04:13;;;;;;;0.20;0.20;;;;;;;19.69;71.16;101290.44;5021896;28;21035;-87
2023/09/21 05:06:38;;;;;;;0.20;0.20;;;;;;;19.63;72.06;101298.75;5043592;28;20075;-88
2023/09/21 05:09:04;;;;;;;0.20;0.20;;;;;;;19.82;73.06;101283.25;5016283;28;20025;-89
2023/09/21 05:11:33;;;;;;;0.10;0.10;;;;;;;19.80;72.13;101297.47;5038956;28;20021;-91
2023/09/21 05:13:59;;;;;;;0.20;0.20;;;;;;;19.75;72.39;101293.38;5015939;28;20056;-93
2023/09/21 05:16:25;;;;;;;0.20;0.20;;;;;;;19.57;72.54;101281.69;5042434;28;20111;-90
2023/09/21 05:18:50;;;;;;;0.20;0.20;;;;;;;19.91;72.12;101290.44;5034946;28;20033;-90
2023/09/21 05:21:16;;;;;;;0.15;0.15;;;;;;;19.96;72.03;101297.94;5030586;28;20132;-93
2023/09/21 05:23:45;;;;;;;0.20;0.20;;;;;;;19.94;71.05;101299.84;4995203;28;20513;-92
2023/09/21 05:26:11;;;;;;;0.20;0.20;;;;;;;19.93;71.46;101308.69;5033958;28;20022;-93
2023/09/21 05:28:44;;;;;;;0.20;0.20;;;;;;;19.83;71.41;101308.56;5001687;28;20039;-90
2023/09/21 05:31:09;;;;;;;0.20;0.20;;;;;;;19.87;71.37;101310.00;5022964;28;20025;-90
2023/09/21 05:33:38;;;;;;;0.20;0.20;;;;;;;19.71;71.22;101320.00;5017054;28;20033;-89
2023/09/21 05:36:07;;;;;;;0.20;0.20;;;;;;;19.65;71.73;101297.69;5013150;28;20440;-88
2023/09/21 05:38:32;;;;;;;0.10;0.10;;;;;;;19.73;71.04;101313.69;5006050;28;20025;-92
2023/09/21 05:41:04;;;;;;;0.20;0.20;;;;;;;19.61;71.38;101288.38;5031250;28;20554;-91
2023/09/21 05:43:32;;;;;;;0.20;0.20;;;;;;;19.81;71.92;101315.72;5036115;28;20089;-92
2023/09/21 05:45:58;;;;;;;0.20;0.20;;;;;;;19.87;70.76;101315.25;5002857;28;20033;-92
2023/09/21 05:48:23;;;;;;;0.20;0.20;;;;;;;19.82;70.52;101309.53;5023181;28;20054;-93
2023/09/21 05:50:49;;;;;;;0.20;0.20;;;;;;;19.95;71.26;101314.66;5007546;28;20102;-93
2023/09/21 05:53:15;;;;;;;0.20;0.20;;;;;;;19.94;71.44;101300.69;5006314;28;20033;-88
2023/09/21 05:55:43;;;;;;;0.20;0.20;;;;;;;20.10;70.12;101315.25;5020293;28;20032;-93
2023/09/21 05:58:09;;;;;;;0.20;0.20;;;;;;;20.15;70.17;101306.06;5037777;28;20478;-91
2023/09/21 06:00:35;;;;;;;0.20;0.20;;;;;;;20.12;70.28;101308.09;5018600;28;20056;-90
2023/09/21 06:03:00;;;;;;;0.20;0.20;;;;;;;20.03;68.10;101299.97;5039573;28;20575;-92
2023/09/21 06:05:29;;;;;;;0.17;0.17;;;;;;;20.14;68.39;101314.88;5020980;28;20045;-92
2023/09/21 06:07:55;;;;;;;0.10;0.10;;;;;;;20.15;68.57;101310.47;5000651;28;20041;-88
2023/09/21 06:10:24;;;;;;;0.20;0.20;;;;;;;20.20;69.04;101317.06;5026319;28;20120;-88
2023/09/21 06:12:50;;;;;;;0.20;0.20;;;;;;;20.23;68.59;101311.53;5016913;28;20034;-89
2023/09/21 06:15:16;;;;;;;0.20;0.20;;;;;;;20.29;67.17;101295.31;5015141;28;20029;-87
2023/09/21 06:17:42;;;;;;;0.20;0.20;;;;;;;20.39;66.02;101312.97;5031667;28;20024;-92
2023/09/21 06:20:08;;;;;;;0.20;0.20;;;;;;;20.42;64.79;101315.34;5027717;28;20029;-90
2023/09/21 06:22:33;;;;;;;0.20;0.20;;;;;;;20.40;65.68;101312.00;4996748;28;20528;-92
2023/09/21 06:24:59;;;;;;;0.20;0.20;;;;;;;20.39;66.41;101310.34;5046962;28;20538;-91
2023/09/21 06:27:25;;;;;;;0.20;0.20;;;;;;;20.41;66.73;101311.06;5003840;28;20032;-90
2023/09/21 06:29:51;;;;;;;0.20;0.20;;;;;;;20.44;66.83;101313.47;5015890;28;20030;-89
2023/09/21 06:32:18;;;;;;;0.20;0.20;;;;;;;20.43;66.60;101303.91;5015870;28;20064;-92
2023/09/21 06:34:45;;;;;;;0.20;0.20;;;;;;;20.46;66.20;101306.31;5028688;28;20049;-89
2023/09/21 06:37:13;;;;;;;0.20;0.20;;;;;;;20.43;65.53;101303.91;5034589;28;20096;-92
2023/09/21 06:39:39;;;;;;;0.20;0.20;;;;;;;20.53;65.53;101312.72;5029100;28;20070;-91
2023/09/21 06:42:05;;;;;;;0.20;0.20;;;;;;;20.24;64.52;101276.44;4997962;28;20037;-90
2023/09/21 06:44:31;;;;;;;0.20;0.20;;;;;;;20.51;65.21;101309.41;5016043;28;20026;-94
2023/09/21 06:46:57;;;;;;;0.10;0.10;;;;;;;20.62;65.05;101319.88;4979494;28;20033;-92
2023/09/21 06:49:23;;;;;;;0.20;0.20;;;;;;;20.67;65.23;101328.25;5010153;28;20093;-91
2023/09/21 06:51:49;;;;;;;0.20;0.20;;;;;;;20.57;64.88;101324.69;4991465;28;20120;-91
2023/09/21 06:54:15;;;;;;;0.20;0.20;;;;;;;20.66;64.91;101323.97;4985804;28;20557;-91
2023/09/21 06:56:41;;;;;;;0.20;0.20;;;;;;;20.66;64.94;101310.81;4998201;28;20035;-91
2023/09/21 06:59:06;;;;;;;0.20;0.20;;;;;;;20.56;64.08;101296.75;5033786;28;20088;-90
2023/09/21 07:01:33;;;;;;;0.15;0.15;;;;;;;20.61;64.13;101316.41;4997487;28;20540;-91
2023/09/21 07:03:58;;;;;;;0.20;0.20;;;;;;;20.62;65.19;101328.59;5001967;28;20035;-91
2023/09/21 07:06:24;;;;;;;0.10;0.10;;;;;;;20.57;63.46;101325.53;4996455;28;20041;-89
2023/09/21 07:08:50;;;;;;;0.20;0.20;;;;;;;20.56;64.75;101320.41;5015361;28;20034;-91
2023/09/21 07:11:18;;;;;;;0.20;0.20;;;;;;;20.63;64.81;101324.19;4997315;28;20029;-91
2023/09/21 07:13:45;;;;;;;0.20;0.20;;;;;;;20.64;65.47;101304.81;4979593;28;20025;-90
2023/09/21 07:16:10;;;;;;;0.20;0.20;;;;;;;20.80;65.52;101326.28;5017933;28;20108;-88
2023/09/21 07:18:37;;;;;;;0.20;0.20;;;;;;;20.82;64.36;101326.16;5016304;28;20061;-93
2023/09/21 07:21:03;;;;;;;0.20;0.20;;;;;;;20.80;63.55;101313.16;5016889;28;20065;-92
2023/09/21 07:23:28;;;;;;;0.20;0.20;;;;;;;20.84;62.86;101330.38;5026595;28;20188;-91
2023/09/21 07:25:53;;;;;;;0.20;0.20;;;;;;;21.01;62.47;101331.59;5021540;28;20470;-91
2023/09/21 07:28:21;;;;;;;0.20;0.20;;;;;;;21.05;62.67;101321.69;4981455;28;20037;-90
2023/09/21 07:30:50;;;;;;;0.20;0.20;;;;;;;20.89;61.34;101301.06;4994277;28;20034;-92
2023/09/21 07:33:15;;;;;;;0.20;0.20;;;;;;;21.07;61.77;101338.16;5001334;28;20038;-93
2023/09/21 07:35:41;;;;;;;0.20;0.20;;;;;;;21.15;62.46;101338.38;5024006;28;20144;-91
2023/09/21 07:38:06;;;;;;;0.10;0.10;;;;;;;20.95;61.62;101297.94;5043007;28;20041;-84
2023/09/21 07:40:32;;;;;;;0.20;0.20;;;;;;;21.27;62.08;101334.75;5028483;28;20033;-87
2023/09/21 07:42:57;;;;;;;0.10;0.10;;;;;;;21.34;61.45;101327.22;5039742;28;20036;-86
2023/09/21 07:45:24;;;;;;;0.20;0.20;;;;;;;21.53;60.29;101337.00;5032702;28;20032;-88
2023/09/21 07:47:50;;;;;;;0.20;0.20;;;;;;;21.53;60.42;101334.38;5023271;28;20029;-93
2023/09/21 07:50:18;;;;;;;0.17;0.17;;;;;;;21.62;62.68;101338.88;4997207;28;20115;-89
2023/09/21 07:52:45;;;;;;;0.20;0.20;;;;;;;21.48;59.43;101308.44;5006227;28;20487;-89
2023/09/21 07:55:11;;;;;;;0.10;0.10;;;;;;;21.70;58.46;101344.31;5006717;28;20022;-91
2023/09/21 07:57:37;;;;;;;0.20;0.20;;;;;;;21.71;58.82;101344.19;5017044;28;20470;-90
2023/09/21 08:00:21;;;;;;;0.20;0.20;;;;;;;21.83;58.41;101350.25;4999937;28;20036;-90
2023/09/21 08:02:47;;;;;;;0.10;0.10;;;;;;;21.85;62.14;101334.31;5006813;28;20503;-89
2023/09/21 08:05:13;;;;;;;0.20;0.20;;;;;;;22.05;58.61;101331.63;4997777;28;20029;-93
2023/09/21 08:07:49;;;;;;;0.20;0.20;;;;;;;22.17;58.26;101327.13;5106811;27;20411;-86
2023/09/21 08:10:15;;;;;;;0.10;0.10;;;;;;;22.25;58.79;101326.47;5105260;28;20036;-89
2023/09/21 08:12:41;;;;;;;0.20;0.20;;;;;;;22.19;58.27;101327.00;5079856;28;20054;-92
2023/09/21 08:15:06;;;;;;;0.20;0.20;;;;;;;22.29;58.33;101325.22;5074340;28;20031;-88
2023/09/21 08:17:32;;;;;;;0.10;0.10;;;;;;;22.47;57.50;101333.31;5090869;28;20077;-91
2023/09/21 08:19:58;;;;;;;0.20;0.20;;;;;;;22.64;58.94;101337.13;5089439;28;20110;-88
2023/09/21 08:22:26;;;;;;;0.20;0.20;;;;;;;22.68;58.20;101335.88;5088992;28;20058;-91
2023/09/21 08:24:52;;;;;;;0.10;0.10;;;;;;;22.66;57.81;101337.81;5107927;28;20458;-91
2023/09/21 08:27:18;;;;;;;0.20;0.20;;;;;;;22.69;56.93;101346.28;5088968;28;20434;-91
2023/09/21 08:29:44;;;;;;;0.20;0.20;;;;;;;22.75;55.95;101358.94;5074683;28;20042;-93
2023/09/21 08:32:09;;;;;;;0.20;0.20;;;;;;;22.73;56.34;101341.59;5075807;28;20032;-89
2023/09/21 08:34:35;;;;;;;0.20;0.20;;;;;;;22.72;56.08;101345.19;5073097;28;20032;-87
2023/09/21 08:37:00;;;;;;;0.20;0.20;;;;;;;22.62;58.35;101339.91;5088700;28;20035;-89
2023/09/21 08:39:26;;;;;;;0.20;0.20;;;;;;;22.76;56.73;101357.97;5107383;28;20142;-93
2023/09/21 08:41:52;;;;;;;0.10;0.10;;;;;;;22.79;56.25;101356.84;5075065;28;20039;-92
2023/09/21 08:44:17;;;;;;;0.10;0.10;;;;;;;22.82;55.23;101346.03;5074874;28;20036;-92
2023/09/21 08:46:47;;;;;;;0.20;0.20;;;;;;;22.74;56.05;101352.00;5089754;28;20043;-89
2023/09/21 08:49:16;;;;;;;0.10;0.10;;;;;;;22.79;57.65;101351.56;5092520;28;20024;-93
2023/09/21 08:51:45;;;;;;;0.20;0.20;;;;;;;22.76;55.70;101350.03;5062459;28;20032;-93
2023/09/21 08:54:13;;;;;;;0.20;0.20;;;;;;;22.72;56.41;101348.66;5058698;28;20020;-88
2023/09/21 08:56:39;;;;;;;0.20;0.20;;;;;;;22.78;55.92;101344.63;5068122;28;20093;-86
2023/09/21 08:59:06;;;;;;;0.20;0.20;;;;;;;22.80;57.00;101332.97;5068696;28;20801;-84
2023/09/21 09:01:32;;;;;;;0.10;0.10;;;;;;;22.89;55.32;101337.44;5044069;28;20049;-89
2023/09/21 09:03:58;;;;;;;0.20;0.20;;;;;;;22.91;55.86;101339.97;5033451;28;20036;-88
2023/09/21 09:06:29;;;;;;;0.20;0.20;;;;;;;22.99;57.03;101326.91;5045323;28;20561;-92
2023/09/21 09:08:55;;;;;;;0.20;0.20;;;;;;;23.02;56.32;101329.28;5055929;28;20025;-91
2023/09/21 09:11:38;;;;;;;0.20;0.20;;;;;;;23.07;56.60;101334.97;5031650;28;20029;-88
2023/09/21 09:14:04;;;;;;;0.20;0.20;;;;;;;23.12;56.88;101316.91;5032083;28;20036;-88
2023/09/21 09:16:30;;;;;;;0.15;0.15;;;;;;;23.27;55.99;101327.88;5027758;28;20056;-86
2023/09/21 09:19:00;;;;;;;0.20;0.20;;;;;;;23.45;57.22;101323.53;4999089;28;20079;-85
2023/09/21 09:21:26;;;;;;;0.20;0.20;;;;;;;23.50;55.41;101322.28;5013913;28;20035;-85
2023/09/21 09:23:52;;;;;;;0.20;0.20;;;;;;;23.48;55.51;101317.97;5033332;28;20021;-87
2023/09/21 09:26:19;;;;;;;0.20;0.20;;;;;;;23.53;54.68;101322.00;5031345;28;20075;-92
2023/09/21 09:28:44;;;;;;;0.20;0.20;;;;;;;23.63;55.65;101317.56;4998992;28;20578;-91
2023/09/21 09:31:14;;;;;;;0.20;0.20;;;;;;;23.70;54.84;101319.50;5038260;28;20029;-91
2023/09/21 09:33:40;;;;;;;0.10;0.10;;;;;;;23.68;54.02;101313.50;5030618;28;20027;-88
2023/09/21 09:36:07;;;;;;;0.20;0.20;;;;;;;23.75;54.33;101309.31;5028328;28;20448;-87
2023/09/21 09:38:33;;;;;;;0.20;0.20;;;;;;;23.80;54.85;101305.44;5014011;28;20033;-86
2023/09/21 09:41:00;;;;;;;0.20;0.20;;;;;;;24.02;53.63;101327.03;5013670;28;20025;-83
2023/09/21 09:43:26;;;;;;;0.20;0.20;;;;;;;24.11;52.30;101335.91;5024232;28;20052;-86
2023/09/21 09:45:51;;;;;;;0.20;0.20;;;;;;;24.09;53.76;101332.59;5013421;28;20068;-89
2023/09/21 09:48:19;;;;;;;0.20;0.20;;;;;;;24.05;53.37;101331.19;5013741;28;20056;-91
2023/09/21 09:50:47;;;;;;;0.20;0.20;;;;;;;24.13;54.49;101325.19;5015141;28;20030;-89
2023/09/21 09:53:17;;;;;;;0.20;0.20;;;;;;;24.16;53.42;101323.06;5017446;28;20040;-92
2023/09/21 09:55:42;;;;;;;0.10;0.10;;;;;;;24.27;54.61;101333.44;5004235;28;20018;-93
2023/09/21 09:58:09;;;;;;;0.10;0.10;;;;;;;24.39;53.06;101330.66;5017085;28;20064;-90
2023/09/21 10:00:39;;;;;;;0.20;0.20;;;;;;;24.50;53.35;101335.75;5013938;28;20037;-88
2023/09/21 10:03:08;;;;;;;0.20;0.20;;;;;;;24.40;52.39;101313.81;5015266;28;20045;-83
2023/09/21 10:05:36;;;;;;;0.20;0.20;;;;;;;24.52;52.67;101333.78;5033053;28;20024;-90
2023/09/21 10:08:03;;;;;;;0.20;0.20;;;;;;;24.66;52.97;101333.25;5048953;28;20108;-89
2023/09/21 10:10:30;;;;;;;0.20;0.20;;;;;;;24.62;51.72;101321.31;5016925;28;20085;-86
2023/09/21 10:12:57;;;;;;;0.20;0.20;;;;;;;24.59;50.60;101319.81;5033841;28;20024;-86
2023/09/21 10:15:23;;;;;;;0.20;0.20;;;;;;;24.68;51.13;101330.47;5033386;28;20048;-89
2023/09/21 10:17:50;;;;;;;0.20;0.20;;;;;;;24.83;51.01;101324.50;5026313;28;20029;-85
2023/09/21 10:20:27;;;;;;;0.20;0.20;;;;;;;24.94;51.04;101314.69;5048915;28;20093;-88
2023/09/21 10:22:53;;;;;;;0.20;0.20;;;;;;;25.05;50.08;101315.31;5050857;28;20036;-88
2023/09/21 10:25:36;;;;;;;0.20;0.20;;;;;;;25.15;50.54;101318.72;5032073;28;20086;-87
2023/09/21 10:28:27;;;;;;;0.20;0.20;;;;;;;25.03;49.46;101312.00;5050503;28;20083;-89
2023/09/21 10:30:54;;;;;;;0.20;0.20;;;;;;;25.04;51.06;101312.81;5020965;28;20106;-94
2023/09/21 10:33:19;;;;;;;0.20;0.20;;;;;;;25.08;50.87;101304.44;5023981;28;20048;-91
2023/09/21 10:35:45;;;;;;;0.20;0.20;;;;;;;25.21;50.35;101304.03;5030365;28;20438;-91
2023/09/21 10:38:15;;;;;;;0.10;0.10;;;;;;;25.32;49.00;101306.44;5040992;28;20051;-88
2023/09/21 10:40:40;;;;;;;0.20;0.20;;;;;;;25.22;49.36;101288.97;5048073;28;20021;-86
2023/09/21 10:43:37;;;;;;;0.20;0.20;;;;;;;25.40;49.89;101303.03;5033356;28;20536;-90
2023/09/21 10:46:03;;;;;;;0.20;0.20;;;;;;;25.31;50.55;101299.47;5050290;28;20513;-91
2023/09/21 10:48:30;;;;;;;0.20;0.20;;;;;;;25.22;50.16;101292.47;5034036;28;20032;-89
2023/09/21 10:50:56;;;;;;;0.20;0.20;;;;;;;25.16;51.17;101290.41;5030446;28;20156;-88
2023/09/21 10:53:23;;;;;;;0.20;0.20;;;;;;;25.29;50.99;101297.97;5033080;28;20048;-86
2023/09/21 10:55:48;;;;;;;0.20;0.20;;;;;;;25.37;51.02;101293.56;5018799;28;20031;-90
2023/09/21 10:58:16;;;;;;;0.20;0.20;;;;;;;25.38;50.54;101289.94;5050955;28;20505;-86
2023/09/21 11:00:43;;;;;;;0.20;0.20;;;;;;;25.39;51.37;101286.28;5032544;28;20082;-86
2023/09/21 11:03:10;;;;;;;0.15;0.15;;;;;;;25.41;49.53;101284.31;5023249;28;20103;-89
2023/09/21 11:05:36;;;;;;;0.20;0.20;;;;;;;25.40;51.22;101266.75;5051115;28;20029;-93
2023/09/21 11:08:02;;;;;;;0.20;0.20;;;;;;;25.60;51.23;101274.50;5050458;28;20453;-88
2023/09/21 11:10:28;;;;;;;0.20;0.20;;;;;;;25.67;50.38;101262.28;5032706;28;20032;-88
2023/09/21 11:12:54;;;;;;;0.20;0.20;;;;;;;25.75;48.93;101257.03;5033543;28;20029;-85
2023/09/21 11:15:20;;;;;;;0.20;0.20;;;;;;;25.66;50.29;101224.38;5031648;28;20131;-84
2023/09/21 11:17:46;;;;;;;0.20;0.20;;;;;;;26.00;47.90;101256.16;5031037;28;20026;-89
2023/09/21 11:20:14;;;;;;;0.20;0.20;;;;;;;26.02;47.65;101225.00;5032712;28;20033;-93
2023/09/21 11:22:41;;;;;;;0.20;0.20;;;;;;;26.33;49.10;101242.16;5049221;28;20418;-87
2023/09/21 11:25:07;;;;;;;0.20;0.20;;;;;;;26.33;47.46;101227.06;5031831;28;20154;-87
2023/09/21 11:27:33;;;;;;;0.20;0.20;;;;;;;26.46;47.08;101235.44;5049304;28;20045;-88